Time,TemperatureF,DewpointF,PressureIn,WindDirection,WindDirectionDegrees,WindSpeedMPH,WindSpeedGustMPH,Humidity,HourlyPrecipIn,Conditions,Clouds,dailyrainin,SoftwareType,DateUTC
2013-01-20 00:02:00,22.0,21.0,-100.00,SSW,195,2.0,3.0,95,-99.99,,,-99.99,,2013-01-20 08:02:00,
2013-01-20 00:10:00,21.0,20.0,-100.00,SW,215,1.0,3.0,95,-99.99,,,-99.99,,2013-01-20 08:10:00,
2013-01-20 01:02:00,21.0,20.0,-100.00,SW,215,1.0,3.0,95,-99.99,,,-99.99,,2013-01-20 09:02:00,
2013-01-20 01:10:00,19.0,18.0,-100.00,SSW,205,2.0,3.0,95,-99.99,,,-99.99,,2013-01-20 09:10:00,
2013-01-20 02:02:00,19.0,18.0,-100.00,SSW,205,2.0,3.0,95,-99.99,,,-99.99,,2013-01-20 10:02:00,
2013-01-20 02:10:00,17.0,16.0,-100.00,SW,225,2.0,3.0,95,-99.99,,,-99.99,,2013-01-20 10:10:00,
2013-01-20 03:02:00,17.0,16.0,-100.00,SW,225,2.0,3.0,95,-99.99,,,-99.99,,2013-01-20 11:02:00,
2013-01-20 03:10:00,15.0,14.0,-100.00,SW,225,2.0,3.0,95,-99.99,,,-99.99,,2013-01-20 11:10:00,
2013-01-20 04:03:00,15.0,14.0,-100.00,SW,225,2.0,3.0,95,-99.99,,,-99.99,,2013-01-20 12:03:00,
2013-01-20 04:10:00,14.0,14.0,-100.00,SW,230,3.0,3.0,100,-99.99,,,-99.99,,2013-01-20 12:10:00,
2013-01-20 05:02:00,14.0,14.0,-100.00,SW,230,3.0,3.0,100,-99.99,,,-99.99,,2013-01-20 13:02:00,
2013-01-20 05:10:00,15.0,15.0,-100.00,WSW,245,1.0,3.0,100,-99.99,,,-99.99,,2013-01-20 13:10:00,
2013-01-20 06:02:00,15.0,15.0,-100.00,WSW,245,1.0,3.0,100,-99.99,,,-99.99,,2013-01-20 14:02:00,
2013-01-20 06:10:00,17.0,16.0,-100.00,SSW,200,1.0,1.0,95,-99.99,,,-99.99,,2013-01-20 14:10:00,
2013-01-20 07:03:00,17.0,16.0,-100.00,SSW,200,1.0,1.0,95,-99.99,,,-99.99,,2013-01-20 15:03:00,
2013-01-20 07:10:00,17.0,16.0,-100.00,WNW,300,0.0,2.0,95,-99.99,,,-99.99,,2013-01-20 15:10:00,
2013-01-20 08:02:00,17.0,16.0,-100.00,WNW,300,0.0,2.0,95,-99.99,,,-99.99,,2013-01-20 16:02:00,
2013-01-20 08:10:00,17.0,16.0,-100.00,North,-999,0.0,0.0,95,-99.99,,,-99.99,,2013-01-20 16:10:00,
2013-01-20 09:03:00,17.0,16.0,-100.00,North,-999,0.0,0.0,95,-99.99,,,-99.99,,2013-01-20 17:03:00,
2013-01-20 09:10:00,19.0,19.0,-100.00,SE,135,0.0,1.0,100,-99.99,,,-99.99,,2013-01-20 17:10:00,
2013-01-20 10:02:00,19.0,19.0,-100.00,SE,135,0.0,1.0,100,-99.99,,,-99.99,,2013-01-20 18:02:00,
2013-01-20 10:10:00,20.0,20.0,-100.00,ENE,65,2.0,3.0,100,-99.99,,,-99.99,,2013-01-20 18:10:00,
2013-01-20 11:02:00,20.0,20.0,-100.00,ENE,65,2.0,3.0,100,-99.99,,,-99.99,,2013-01-20 19:02:00,
2013-01-20 11:10:00,24.0,23.0,-100.00,NW,320,1.0,2.0,95,-99.99,,,-99.99,,2013-01-20 19:10:00,
2013-01-20 12:02:00,24.0,23.0,-100.00,NW,320,1.0,2.0,95,-99.99,,,-99.99,,2013-01-20 20:02:00,
2013-01-20 12:10:00,28.0,28.0,-100.00,East,100,2.0,5.0,100,-99.99,,,-99.99,,2013-01-20 20:10:00,
2013-01-20 13:03:00,28.0,28.0,-100.00,East,100,2.0,5.0,100,-99.99,,,-99.99,,2013-01-20 21:03:00,
2013-01-20 13:10:00,31.0,25.0,-100.00,East,85,3.0,6.0,78,-99.99,,,-99.99,,2013-01-20 21:10:00,
2013-01-20 14:03:00,31.0,25.0,-100.00,East,85,3.0,6.0,78,-99.99,,,-99.99,,2013-01-20 22:03:00,
2013-01-20 14:10:00,32.0,25.0,-100.00,East,80,2.0,5.0,75,-99.99,,,-99.99,,2013-01-20 22:10:00,
2013-01-20 15:03:00,32.0,25.0,-100.00,East,80,2.0,5.0,75,-99.99,,,-99.99,,2013-01-20 23:03:00,
2013-01-20 16:10:00,30.0,23.0,-100.00,South,185,1.0,2.0,74,-99.99,,,-99.99,,2013-01-21 00:10:00,
2013-01-20 17:03:00,30.0,23.0,-100.00,South,185,1.0,2.0,74,-99.99,,,-99.99,,2013-01-21 01:03:00,
2013-01-20 17:10:00,25.0,20.0,-100.00,South,175,1.0,3.0,81,-99.99,,,-99.99,,2013-01-21 01:10:00,
2013-01-20 18:03:00,25.0,20.0,-100.00,South,175,1.0,3.0,81,-99.99,,,-99.99,,2013-01-21 02:03:00,
2013-01-20 18:10:00,22.0,19.0,-100.00,SSW,195,0.0,3.0,88,-99.99,,,-99.99,,2013-01-21 02:10:00,
2013-01-20 19:02:00,22.0,19.0,-100.00,SSW,195,0.0,3.0,88,-99.99,,,-99.99,,2013-01-21 03:02:00,
2013-01-20 19:10:00,20.0,18.0,-100.00,SSW,210,1.0,3.0,91,-99.99,,,-99.99,,2013-01-21 03:10:00,
2013-01-20 20:03:00,20.0,18.0,-100.00,SSW,210,1.0,3.0,91,-99.99,,,-99.99,,2013-01-21 04:03:00,
2013-01-20 20:10:00,18.0,17.0,-100.00,SW,220,1.0,2.0,95,-99.99,,,-99.99,,2013-01-21 04:10:00,
2013-01-20 21:03:00,18.0,17.0,-100.00,SW,220,1.0,2.0,95,-99.99,,,-99.99,,2013-01-21 05:03:00,
2013-01-20 22:10:00,14.0,13.0,-100.00,SW,230,3.0,5.0,95,-99.99,,,-99.99,,2013-01-21 06:10:00,
2013-01-20 23:03:00,14.0,13.0,-100.00,SW,230,3.0,5.0,95,-99.99,,,-99.99,,2013-01-21 07:03:00,
2013-01-20 23:10:00,13.0,12.0,-100.00,SW,225,2.0,5.0,95,-99.99,,,-99.99,,2013-01-21 07:10:00,